Walden, New York
Current Conditions -  °F | °C
As of 7:54 PM on Friday 24 Oct 2014 (Local Time) from KMGJ Reporting Station
Clear Clear  
Wind Chill: 58°   Ceiling: Unl
Heat Index: 58°   Visibility: 10mi
Dew Point: 41°   Wind: 6mph
Humidity: 53%   Direction: 310°NW
Pressure: 29.8"   Gusts: NA
Location:  41.56°N, 74.19°W
Report Text: KMGJ 242354Z AUTO 31005KT 10SM CLR 14/05 A2980 RMK AO2 SLP092 T01440050 10178 20111 53014 TSNO
Loading
Personal Weather Stations






























Interactive Weather Map
Tropical Storm Tracking
New forecast layout! Learn more

10-Day Weather Forecast

Advertisements
Track Severe Weather on mobile